Time;durP1;ratioP1;P1;durP2;ratioP2;P2;SDS_P1;SDS_P2;PMS_P1;PMS_P2;Temp;Humidity;BMP_temperature;BMP_pressure;BME280_temperature;BME280_humidity;BME280_pressure;Samples;Min_cycle;Max_cycle;Signal;HPM_P1;HPM_P2
2022/04/28 00:02:25;;;;;;;13.23;6.25;;;;;;;;;;5010618;28;20112;-70
2022/04/28 00:04:51;;;;;;;16.73;6.18;;;;;;;;;;5024867;28;20413;-70
2022/04/28 00:07:17;;;;;;;12.63;6.10;;;;;;;;;;5028359;28;20037;-69
2022/04/28 00:09:43;;;;;;;12.93;6.20;;;;;;;;;;5035393;28;20373;-72
2022/04/28 00:12:10;;;;;;;11.23;5.97;;;;;;;;;;5026195;28;20045;-72
2022/04/28 00:14:37;;;;;;;12.27;6.00;;;;;;;;;;5024036;28;20081;-71
2022/04/28 00:17:03;;;;;;;12.75;6.05;;;;;;;;;;5021929;28;20063;-72
2022/04/28 00:19:29;;;;;;;10.73;6.22;;;;;;;;;;5020294;28;20049;-71
2022/04/28 00:21:55;;;;;;;13.90;6.45;;;;;;;;;;5025265;28;20049;-71
2022/04/28 00:24:21;;;;;;;10.32;6.38;;;;;;;;;;5025365;28;20052;-71
2022/04/28 00:26:48;;;;;;;17.50;6.43;;;;;;;;;;5005149;28;20538;-71
2022/04/28 00:29:14;;;;;;;11.32;6.80;;;;;;;;;;5019438;28;20083;-71
2022/04/28 00:31:40;;;;;;;13.60;6.78;;;;;;;;;;5014081;28;20091;-71
2022/04/28 00:34:06;;;;;;;11.88;6.32;;;;;;;;;;5045714;28;20052;-71
2022/04/28 00:36:32;;;;;;;13.70;6.72;;;;;;;;;;5034116;28;20029;-71
2022/04/28 00:38:58;;;;;;;15.63;6.80;;;;;;;;;;5024658;28;20041;-72
2022/04/28 00:41:24;;;;;;;12.35;7.15;;;;;;;;;;5029681;28;20049;-71
2022/04/28 00:43:51;;;;;;;15.90;7.40;;;;;;;;;;5024563;28;20056;-71
2022/04/28 00:46:18;;;;;;;13.40;6.35;;;;;;;;;;5029079;28;20037;-71
2022/04/28 00:51:32;;;;;;;14.13;7.03;;;;;;;;;;5023933;28;20072;-71
2022/04/28 00:53:59;;;;;;;12.98;6.57;;;;;;;;;;5027568;28;20037;-71
2022/04/28 00:56:26;;;;;;;17.00;7.75;;;;;;;;;;5029846;28;20053;-71
2022/04/28 00:58:53;;;;;;;13.48;6.43;;;;;;;;;;5027144;28;20075;-71
2022/04/28 01:01:19;;;;;;;15.15;7.00;;;;;;;;;;5019489;28;20136;-72
2022/04/28 01:03:46;;;;;;;15.57;7.43;;;;;;;;;;5023299;28;20041;-72
2022/04/28 01:06:12;;;;;;;14.38;7.03;;;;;;;;;;5021436;28;20118;-71
2022/04/28 01:08:39;;;;;;;11.65;6.32;;;;;;;;;;5036040;28;20102;-71
2022/04/28 01:11:06;;;;;;;12.52;7.60;;;;;;;;;;5046416;28;21469;-71
2022/04/28 01:13:32;;;;;;;13.77;7.28;;;;;;;;;;5042192;28;20041;-71
2022/04/28 01:15:58;;;;;;;11.50;6.72;;;;;;;;;;5018266;28;20044;-72
2022/04/28 01:18:24;;;;;;;16.20;7.47;;;;;;;;;;5026103;28;20047;-72
2022/04/28 01:20:50;;;;;;;13.48;7.80;;;;;;;;;;5001475;28;20087;-71
2022/04/28 01:23:18;;;;;;;15.77;8.27;;;;;;;;;;5027963;28;20049;-71
2022/04/28 01:25:44;;;;;;;13.10;7.60;;;;;;;;;;5019845;28;20504;-72
2022/04/28 01:28:10;;;;;;;12.05;7.10;;;;;;;;;;5024680;28;20045;-71
2022/04/28 01:30:37;;;;;;;13.00;7.45;;;;;;;;;;5021913;28;20515;-72
2022/04/28 01:33:03;;;;;;;12.55;7.20;;;;;;;;;;5016647;28;20040;-71
2022/04/28 01:35:29;;;;;;;13.68;6.72;;;;;;;;;;5020783;28;20069;-71
2022/04/28 01:37:55;;;;;;;14.88;8.07;;;;;;;;;;5026132;28;20080;-72
2022/04/28 01:40:22;;;;;;;14.55;7.75;;;;;;;;;;5023610;28;20083;-71
2022/04/28 01:42:48;;;;;;;13.25;6.95;;;;;;;;;;5006254;28;20040;-71
2022/04/28 01:45:14;;;;;;;11.23;7.43;;;;;;;;;;5021967;28;20041;-72
2022/04/28 01:47:41;;;;;;;12.52;7.07;;;;;;;;;;5017784;28;20100;-71
2022/04/28 01:50:09;;;;;;;10.70;7.22;;;;;;;;;;5017345;28;20068;-71
2022/04/28 01:55:20;;;;;;;11.10;7.00;;;;;;;;;;5038734;28;20091;-71
2022/04/28 01:57:46;;;;;;;10.93;6.55;;;;;;;;;;5031090;28;20132;-72
2022/04/28 02:00:12;;;;;;;14.52;7.15;;;;;;;;;;5021251;28;20124;-71
2022/04/28 02:02:39;;;;;;;12.68;6.93;;;;;;;;;;5024946;28;20056;-72
2022/04/28 02:05:06;;;;;;;17.13;7.45;;;;;;;;;;5006270;28;20037;-71
2022/04/28 02:07:32;;;;;;;14.32;6.65;;;;;;;;;;5021500;28;20041;-72
2022/04/28 02:09:58;;;;;;;12.77;7.30;;;;;;;;;;5017292;28;20080;-72
2022/04/28 02:12:25;;;;;;;13.43;7.57;;;;;;;;;;5019927;28;20041;-71
2022/04/28 02:14:52;;;;;;;15.02;7.32;;;;;;;;;;5023149;28;20041;-71
2022/04/28 02:17:22;;;;;;;11.90;7.13;;;;;;;;;;5029437;28;20041;-72
2022/04/28 02:19:48;;;;;;;13.02;7.45;;;;;;;;;;5015988;28;20042;-72
2022/04/28 02:22:14;;;;;;;13.43;7.45;;;;;;;;;;5019651;28;20049;-71
2022/04/28 02:24:40;;;;;;;14.55;7.97;;;;;;;;;;5019972;28;20041;-71
2022/04/28 02:27:07;;;;;;;11.20;7.35;;;;;;;;;;5021335;28;20465;-72
2022/04/28 02:29:33;;;;;;;11.50;7.40;;;;;;;;;;5021870;28;20041;-72
2022/04/28 02:31:59;;;;;;;14.38;8.27;;;;;;;;;;5019430;28;20041;-72
2022/04/28 02:34:25;;;;;;;14.88;7.38;;;;;;;;;;5004158;28;20485;-71
2022/04/28 02:36:52;;;;;;;16.40;7.97;;;;;;;;;;5024728;28;20392;-71
2022/04/28 02:39:18;;;;;;;17.50;7.82;;;;;;;;;;5023342;28;20041;-72
2022/04/28 02:41:45;;;;;;;20.15;7.97;;;;;;;;;;5019204;28;20040;-71
2022/04/28 02:44:12;;;;;;;13.95;8.40;;;;;;;;;;5027971;28;20398;-72
2022/04/28 02:46:45;;;;;;;16.88;8.10;;;;;;;;;;5017485;28;20033;-71
2022/04/28 02:49:12;;;;;;;20.20;8.63;;;;;;;;;;5016251;28;20050;-72
2022/04/28 02:51:38;;;;;;;16.55;8.68;;;;;;;;;;5018537;28;20033;-72
2022/04/28 02:54:05;;;;;;;12.63;7.55;;;;;;;;;;5019162;28;20033;-71
2022/04/28 02:56:31;;;;;;;13.75;7.82;;;;;;;;;;5020199;28;20052;-71
2022/04/28 02:58:57;;;;;;;13.20;7.68;;;;;;;;;;5021608;28;20049;-71
2022/04/28 03:01:23;;;;;;;14.70;8.93;;;;;;;;;;5019097;28;20087;-72
2022/04/28 03:03:50;;;;;;;14.35;9.13;;;;;;;;;;5018151;28;20391;-71
2022/04/28 03:11:49;;;;;;;18.98;10.48;;;;;;;;;;5016248;28;20504;-71
2022/04/28 03:14:15;;;;;;;13.65;9.40;;;;;;;;;;5019356;28;20053;-72
2022/04/28 03:16:41;;;;;;;16.83;10.85;;;;;;;;;;5019108;28;20049;-71
2022/04/28 03:19:08;;;;;;;22.23;12.05;;;;;;;;;;4999864;28;20492;-71
2022/04/28 03:21:34;;;;;;;19.20;10.85;;;;;;;;;;5021658;28;20050;-71
2022/04/28 03:24:00;;;;;;;15.68;9.35;;;;;;;;;;5025240;28;20465;-72
2022/04/28 03:26:28;;;;;;;14.75;8.98;;;;;;;;;;5040638;28;20037;-71
2022/04/28 03:28:54;;;;;;;18.38;10.32;;;;;;;;;;5021384;28;20520;-71
2022/04/28 03:31:21;;;;;;;15.60;9.43;;;;;;;;;;5017398;28;20133;-72
2022/04/28 03:33:47;;;;;;;17.27;9.30;;;;;;;;;;5015183;28;20076;-71
2022/04/28 03:38:57;;;;;;;19.83;8.48;;;;;;;;;;5024115;28;20563;-71
2022/04/28 03:41:24;;;;;;;16.00;9.25;;;;;;;;;;5016756;28;20053;-72
2022/04/28 03:43:50;;;;;;;15.02;8.43;;;;;;;;;;5027267;28;20039;-71
2022/04/28 03:46:18;;;;;;;15.85;7.85;;;;;;;;;;5019097;28;20052;-71
2022/04/28 03:48:44;;;;;;;15.40;8.63;;;;;;;;;;5020430;28;20102;-72
2022/04/28 03:51:10;;;;;;;18.75;9.18;;;;;;;;;;5014121;28;20047;-72
2022/04/28 03:53:36;;;;;;;18.63;9.15;;;;;;;;;;5014378;28;20065;-73
2022/04/28 03:56:03;;;;;;;17.48;9.32;;;;;;;;;;5035660;28;20045;-72
2022/04/28 03:58:29;;;;;;;15.13;9.05;;;;;;;;;;5015520;28;20033;-72
2022/04/28 04:00:55;;;;;;;16.80;8.23;;;;;;;;;;5022968;28;20486;-72
2022/04/28 04:03:21;;;;;;;13.45;7.68;;;;;;;;;;5020391;28;20381;-73
2022/04/28 04:05:47;;;;;;;17.20;8.10;;;;;;;;;;5019803;28;20033;-72
2022/04/28 04:08:14;;;;;;;15.55;7.65;;;;;;;;;;5015910;28;20094;-72
2022/04/28 04:10:40;;;;;;;15.60;7.35;;;;;;;;;;5025741;28;20370;-72
2022/04/28 04:13:06;;;;;;;13.07;7.78;;;;;;;;;;5019888;28;20087;-73
2022/04/28 04:15:32;;;;;;;15.35;7.32;;;;;;;;;;5027754;28;20041;-72
2022/04/28 04:17:59;;;;;;;15.93;7.57;;;;;;;;;;5016703;28;20052;-72
2022/04/28 04:20:25;;;;;;;15.60;7.78;;;;;;;;;;5020778;28;20041;-73
2022/04/28 04:22:52;;;;;;;14.75;7.70;;;;;;;;;;5022079;28;20053;-73
2022/04/28 04:25:19;;;;;;;15.57;7.50;;;;;;;;;;5040634;28;20111;-72
2022/04/28 04:27:45;;;;;;;16.15;7.43;;;;;;;;;;5033798;28;20142;-72
2022/04/28 04:32:56;;;;;;;17.13;8.05;;;;;;;;;;5018953;28;20186;-72
2022/04/28 04:35:23;;;;;;;16.63;7.63;;;;;;;;;;5045541;28;20032;-72
2022/04/28 04:37:50;;;;;;;13.82;6.82;;;;;;;;;;5028657;28;20057;-72
2022/04/28 04:40:16;;;;;;;12.40;7.88;;;;;;;;;;5024403;28;20048;-72
2022/04/28 04:42:42;;;;;;;13.02;6.65;;;;;;;;;;5026499;28;20033;-72
2022/04/28 04:45:09;;;;;;;14.50;7.10;;;;;;;;;;5026014;28;20045;-73
2022/04/28 04:47:35;;;;;;;16.48;6.57;;;;;;;;;;5028398;28;20068;-73
2022/04/28 04:50:01;;;;;;;11.32;6.43;;;;;;;;;;5030093;28;20037;-72
2022/04/28 04:52:27;;;;;;;12.73;6.65;;;;;;;;;;5031085;28;20051;-73
2022/04/28 04:54:53;;;;;;;9.55;6.25;;;;;;;;;;5007148;28;20081;-72
2022/04/28 04:57:20;;;;;;;9.23;5.43;;;;;;;;;;5028365;28;20037;-72
2022/04/28 04:59:46;;;;;;;14.32;7.05;;;;;;;;;;5022153;28;20120;-73
2022/04/28 05:02:12;;;;;;;13.70;6.10;;;;;;;;;;5022595;28;20095;-73
2022/04/28 05:04:38;;;;;;;14.48;6.70;;;;;;;;;;5026448;28;20045;-72
2022/04/28 05:07:04;;;;;;;12.63;6.07;;;;;;;;;;5025727;28;20041;-72
2022/04/28 05:09:30;;;;;;;14.23;6.75;;;;;;;;;;5023520;28;20041;-72
2022/04/28 05:11:56;;;;;;;13.18;6.20;;;;;;;;;;5005508;28;20396;-72
2022/04/28 05:14:22;;;;;;;13.50;6.55;;;;;;;;;;5029346;28;20076;-73
2022/04/28 05:16:49;;;;;;;11.75;6.68;;;;;;;;;;5023634;28;20033;-73
2022/04/28 05:19:15;;;;;;;10.68;6.13;;;;;;;;;;5030253;28;20041;-72
2022/04/28 05:21:41;;;;;;;13.32;7.03;;;;;;;;;;5017580;28;20054;-72
2022/04/28 05:24:07;;;;;;;13.90;7.68;;;;;;;;;;5026442;28;20172;-72
2022/04/28 05:26:33;;;;;;;10.85;6.55;;;;;;;;;;5020758;28;20033;-73
2022/04/28 05:28:59;;;;;;;12.50;6.72;;;;;;;;;;5030018;28;20053;-72
2022/04/28 05:31:25;;;;;;;13.05;6.97;;;;;;;;;;5020902;28;20093;-72
2022/04/28 05:33:51;;;;;;;12.35;7.10;;;;;;;;;;5022404;28;20038;-72
2022/04/28 05:36:17;;;;;;;14.70;7.68;;;;;;;;;;5023600;28;21081;-72
2022/04/28 05:38:44;;;;;;;16.75;7.25;;;;;;;;;;5025979;28;20083;-72
2022/04/28 05:41:10;;;;;;;13.32;7.30;;;;;;;;;;5040883;28;20425;-73
2022/04/28 05:46:23;;;;;;;12.07;7.05;;;;;;;;;;5033274;28;20056;-73
2022/04/28 05:48:49;;;;;;;14.68;6.95;;;;;;;;;;5023950;28;20052;-73
2022/04/28 05:51:15;;;;;;;17.35;6.97;;;;;;;;;;5035758;28;20053;-73
2022/04/28 05:53:42;;;;;;;11.90;6.03;;;;;;;;;;5016210;28;20045;-72
2022/04/28 05:56:08;;;;;;;10.88;6.13;;;;;;;;;;5040147;28;20040;-70
2022/04/28 05:58:34;;;;;;;11.75;5.32;;;;;;;;;;5020265;28;20050;-71
2022/04/28 06:01:02;;;;;;;15.35;6.47;;;;;;;;;;5018952;28;20045;-73
2022/04/28 06:03:28;;;;;;;13.82;5.43;;;;;;;;;;5022529;28;20040;-70
2022/04/28 06:05:54;;;;;;;10.13;5.32;;;;;;;;;;5022169;28;20548;-71
2022/04/28 06:08:20;;;;;;;13.43;5.47;;;;;;;;;;5027348;28;20041;-69
2022/04/28 06:10:46;;;;;;;12.20;5.28;;;;;;;;;;5016478;28;20493;-72
2022/04/28 06:13:12;;;;;;;12.30;5.85;;;;;;;;;;5022761;28;20055;-70
2022/04/28 06:15:38;;;;;;;13.07;5.35;;;;;;;;;;5018287;28;20465;-73
2022/04/28 06:18:04;;;;;;;14.82;5.68;;;;;;;;;;5019186;28;20520;-72
2022/04/28 06:20:32;;;;;;;8.15;4.95;;;;;;;;;;5040750;28;20039;-72
2022/04/28 06:22:58;;;;;;;12.35;4.78;;;;;;;;;;5018083;28;20050;-72
2022/04/28 06:25:24;;;;;;;10.88;4.88;;;;;;;;;;5017696;28;20045;-73
2022/04/28 06:27:53;;;;;;;7.53;4.30;;;;;;;;;;5021916;28;20049;-73
2022/04/28 06:30:19;;;;;;;11.05;4.93;;;;;;;;;;4997713;28;20049;-73
2022/04/28 06:32:45;;;;;;;12.60;4.97;;;;;;;;;;5018292;28;20037;-73
2022/04/28 06:35:11;;;;;;;9.52;4.55;;;;;;;;;;5018720;28;20524;-72
2022/04/28 06:37:39;;;;;;;10.73;4.90;;;;;;;;;;5021783;28;20094;-72
2022/04/28 06:40:05;;;;;;;8.98;4.38;;;;;;;;;;4998832;28;20053;-73
2022/04/28 06:42:31;;;;;;;12.35;4.38;;;;;;;;;;5030314;28;20044;-72
2022/04/28 06:44:57;;;;;;;12.50;4.60;;;;;;;;;;5041534;28;20040;-72
2022/04/28 06:47:23;;;;;;;11.88;4.63;;;;;;;;;;5004579;28;20064;-73
2022/04/28 06:49:51;;;;;;;9.43;4.50;;;;;;;;;;5014588;28;20124;-72
2022/04/28 06:52:17;;;;;;;15.23;4.72;;;;;;;;;;5015653;28;20053;-72
2022/04/28 06:54:43;;;;;;;10.43;3.88;;;;;;;;;;5022208;28;20047;-70
2022/04/28 06:57:09;;;;;;;9.40;3.88;;;;;;;;;;5020960;28;20489;-72
2022/04/28 06:59:35;;;;;;;15.60;4.50;;;;;;;;;;5021247;28;20654;-73
2022/04/28 07:02:01;;;;;;;11.07;3.97;;;;;;;;;;5018940;28;20532;-74
2022/04/28 07:04:27;;;;;;;11.98;3.80;;;;;;;;;;5024436;28;20114;-73
2022/04/28 07:06:53;;;;;;;8.85;4.07;;;;;;;;;;5021634;28;20966;-73
2022/04/28 07:09:19;;;;;;;14.70;3.85;;;;;;;;;;5021962;28;20048;-73
2022/04/28 07:11:46;;;;;;;10.27;4.20;;;;;;;;;;5014725;28;20719;-73
2022/04/28 07:14:13;;;;;;;13.60;3.58;;;;;;;;;;5003064;28;20052;-72
2022/04/28 07:16:39;;;;;;;8.90;4.38;;;;;;;;;;5019785;28;20495;-73
2022/04/28 07:19:06;;;;;;;9.75;3.90;;;;;;;;;;5016603;28;20056;-72
2022/04/28 07:21:33;;;;;;;13.47;4.17;;;;;;;;;;4977059;28;1138096;-73
2022/04/28 07:23:59;;;;;;;7.82;3.40;;;;;;;;;;5025581;28;20064;-72
2022/04/28 07:26:25;;;;;;;8.63;3.53;;;;;;;;;;5046901;28;20124;-72
2022/04/28 07:28:51;;;;;;;9.43;3.90;;;;;;;;;;5020928;28;20044;-72
2022/04/28 07:31:17;;;;;;;11.80;4.03;;;;;;;;;;5020505;28;20469;-72
2022/04/28 07:33:43;;;;;;;9.82;3.63;;;;;;;;;;5026814;28;20513;-74
2022/04/28 07:36:09;;;;;;;10.95;4.00;;;;;;;;;;5010910;28;20517;-74
2022/04/28 07:38:35;;;;;;;12.43;4.57;;;;;;;;;;5014271;28;20045;-74
2022/04/28 07:41:02;;;;;;;14.52;4.53;;;;;;;;;;5037345;28;20041;-75
2022/04/28 07:43:28;;;;;;;10.40;3.70;;;;;;;;;;5005720;28;20045;-75
2022/04/28 07:45:54;;;;;;;12.27;4.50;;;;;;;;;;5021833;28;20087;-75
2022/04/28 07:48:21;;;;;;;9.55;4.03;;;;;;;;;;5017347;28;20120;-75
2022/04/28 07:50:47;;;;;;;12.23;4.00;;;;;;;;;;4999691;28;20045;-75
2022/04/28 07:53:13;;;;;;;10.65;4.07;;;;;;;;;;4999267;28;20046;-75
2022/04/28 07:55:39;;;;;;;10.55;3.90;;;;;;;;;;5013730;28;20124;-75
2022/04/28 07:58:05;;;;;;;12.07;4.30;;;;;;;;;;5018417;28;20052;-74
2022/04/28 08:00:31;;;;;;;14.07;4.38;;;;;;;;;;5019124;28;20400;-74
2022/04/28 08:02:58;;;;;;;11.93;4.07;;;;;;;;;;5024299;28;20041;-75
2022/04/28 08:05:24;;;;;;;10.55;4.10;;;;;;;;;;5027654;28;20393;-75
2022/04/28 08:07:50;;;;;;;10.73;3.72;;;;;;;;;;5032866;28;20048;-75
2022/04/28 08:10:16;;;;;;;7.75;4.03;;;;;;;;;;5012451;28;20465;-75
2022/04/28 08:12:42;;;;;;;10.57;3.78;;;;;;;;;;5046074;28;20041;-74
2022/04/28 08:15:10;;;;;;;10.43;4.15;;;;;;;;;;5032185;28;20129;-75
2022/04/28 08:17:36;;;;;;;9.40;3.53;;;;;;;;;;5021477;28;20056;-74
2022/04/28 08:20:02;;;;;;;12.00;4.18;;;;;;;;;;5031711;28;20041;-75
2022/04/28 08:22:28;;;;;;;13.65;4.40;;;;;;;;;;5031615;28;20054;-74
2022/04/28 08:24:54;;;;;;;8.80;3.83;;;;;;;;;;5029547;28;20045;-75
2022/04/28 08:27:25;;;;;;;11.35;4.45;;;;;;;;;;5021834;28;20037;-75
2022/04/28 08:29:51;;;;;;;9.98;4.60;;;;;;;;;;5029059;28;20458;-75
2022/04/28 08:32:17;;;;;;;11.32;4.60;;;;;;;;;;5032563;28;20041;-75
2022/04/28 08:34:43;;;;;;;8.18;3.70;;;;;;;;;;5024603;28;20120;-74
2022/04/28 08:37:09;;;;;;;10.82;4.10;;;;;;;;;;5002843;28;20099;-75
2022/04/28 08:39:35;;;;;;;10.30;4.05;;;;;;;;;;5035417;28;20041;-74
2022/04/28 08:42:01;;;;;;;11.68;4.63;;;;;;;;;;5031067;28;20048;-75
2022/04/28 08:44:28;;;;;;;12.70;4.13;;;;;;;;;;5020689;28;20040;-74
2022/04/28 08:46:54;;;;;;;15.90;4.40;;;;;;;;;;5020732;28;20042;-74
2022/04/28 08:49:25;;;;;;;9.65;4.00;;;;;;;;;;5013438;28;20436;-75
2022/04/28 08:51:52;;;;;;;12.85;4.38;;;;;;;;;;5045207;28;20090;-75
2022/04/28 08:54:19;;;;;;;8.98;3.85;;;;;;;;;;5022289;28;20041;-76
2022/04/28 08:56:45;;;;;;;8.27;3.60;;;;;;;;;;5030847;28;20068;-74
2022/04/28 08:59:14;;;;;;;10.40;4.25;;;;;;;;;;5021474;28;20056;-75
2022/04/28 09:01:40;;;;;;;10.55;4.10;;;;;;;;;;5021688;28;20088;-75
2022/04/28 09:04:07;;;;;;;9.07;3.78;;;;;;;;;;5020010;28;20069;-75
2022/04/28 09:06:34;;;;;;;11.02;4.05;;;;;;;;;;5038448;28;20412;-73
2022/04/28 09:09:03;;;;;;;10.40;4.13;;;;;;;;;;5022077;28;20107;-75
2022/04/28 09:11:29;;;;;;;8.90;3.47;;;;;;;;;;5028735;28;20504;-75
2022/04/28 09:16:47;;;;;;;8.93;2.70;;;;;;;;;;5025854;28;20041;-75
2022/04/28 09:19:15;;;;;;;9.10;3.05;;;;;;;;;;5027351;28;20116;-75
2022/04/28 09:21:41;;;;;;;9.38;2.88;;;;;;;;;;5028648;28;20057;-76
2022/04/28 09:24:09;;;;;;;7.57;2.88;;;;;;;;;;5018698;28;20082;-75
2022/04/28 09:26:35;;;;;;;7.50;2.75;;;;;;;;;;5002186;28;20494;-75
2022/04/28 09:29:02;;;;;;;6.10;2.55;;;;;;;;;;5022707;28;20392;-75
2022/04/28 09:31:36;;;;;;;6.97;2.65;;;;;;;;;;5023225;28;20043;-74
2022/04/28 09:34:06;;;;;;;7.38;3.03;;;;;;;;;;5025280;28;20559;-75
2022/04/28 09:36:32;;;;;;;4.70;2.72;;;;;;;;;;5020427;28;20045;-75
2022/04/28 09:38:58;;;;;;;6.20;2.50;;;;;;;;;;5018476;28;20048;-75
2022/04/28 09:44:12;;;;;;;8.45;3.03;;;;;;;;;;5016115;28;20513;-75
2022/04/28 09:46:41;;;;;;;8.55;3.15;;;;;;;;;;5017411;28;20029;-75
2022/04/28 09:49:10;;;;;;;7.28;2.55;;;;;;;;;;5018477;28;20397;-75
2022/04/28 09:51:39;;;;;;;6.18;2.70;;;;;;;;;;5021351;28;20523;-75
2022/04/28 09:54:10;;;;;;;9.27;2.55;;;;;;;;;;5001078;28;20052;-75
2022/04/28 09:56:37;;;;;;;5.68;2.88;;;;;;;;;;5020976;28;20054;-75
2022/04/28 09:59:05;;;;;;;7.30;3.30;;;;;;;;;;5048199;28;20095;-74
2022/04/28 10:01:34;;;;;;;6.97;2.72;;;;;;;;;;5018157;28;20115;-74
2022/04/28 10:04:00;;;;;;;9.10;3.10;;;;;;;;;;5023397;28;20076;-74
2022/04/28 10:06:27;;;;;;;5.75;2.65;;;;;;;;;;5017340;28;20041;-75
2022/04/28 10:08:54;;;;;;;6.72;3.03;;;;;;;;;;5025196;28;20370;-74
2022/04/28 10:11:24;;;;;;;7.38;3.05;;;;;;;;;;5020814;28;20126;-76
2022/04/28 10:13:51;;;;;;;9.40;2.78;;;;;;;;;;5020030;28;20040;-77
2022/04/28 10:16:19;;;;;;;7.30;2.80;;;;;;;;;;5005219;28;20072;-76
2022/04/28 10:18:48;;;;;;;10.50;2.40;;;;;;;;;;5026191;28;20064;-77
2022/04/28 10:21:17;;;;;;;10.40;2.90;;;;;;;;;;5025602;28;20493;-77
2022/04/28 10:35:10;;;;;;;6.05;2.90;;;;;;;;;;5021268;28;20628;-76
2022/04/28 10:37:41;;;;;;;7.55;2.88;;;;;;;;;;5016958;28;20081;-76
2022/04/28 10:40:13;;;;;;;20.33;3.17;;;;;;;;;;5042931;28;20041;-76
2022/04/28 10:42:39;;;;;;;4.43;2.38;;;;;;;;;;5026378;28;20120;-76
2022/04/28 10:45:18;;;;;;;8.82;2.70;;;;;;;;;;5032071;28;20040;-76
2022/04/28 10:47:44;;;;;;;8.60;2.80;;;;;;;;;;5038235;28;20052;-76
2022/04/28 10:50:23;;;;;;;5.80;2.72;;;;;;;;;;5023179;28;20049;-76
2022/04/28 10:52:56;;;;;;;8.60;2.85;;;;;;;;;;5028017;28;20492;-76
2022/04/28 10:55:24;;;;;;;6.20;2.63;;;;;;;;;;5019845;28;20116;-76
2022/04/28 10:57:50;;;;;;;6.90;2.67;;;;;;;;;;5019801;28;20033;-76
2022/04/28 11:00:36;;;;;;;6.68;2.40;;;;;;;;;;5006172;28;20041;-75
2022/04/28 11:03:02;;;;;;;8.65;2.90;;;;;;;;;;5022667;28;20484;-76
2022/04/28 11:05:30;;;;;;;7.38;3.10;;;;;;;;;;5026341;28;20136;-76
2022/04/28 11:07:59;;;;;;;6.55;2.60;;;;;;;;;;5024942;28;20064;-76
2022/04/28 11:10:26;;;;;;;8.63;2.63;;;;;;;;;;5028123;28;20049;-77
2022/04/28 11:12:52;;;;;;;8.27;3.03;;;;;;;;;;5023794;28;20052;-76
2022/04/28 11:15:20;;;;;;;8.70;3.08;;;;;;;;;;5041674;28;20036;-76
2022/04/28 11:17:46;;;;;;;8.32;3.03;;;;;;;;;;5014943;28;20045;-76
2022/04/28 11:20:13;;;;;;;7.70;3.03;;;;;;;;;;5021660;28;20040;-76
2022/04/28 11:22:43;;;;;;;7.90;2.58;;;;;;;;;;5025344;28;20054;-75
2022/04/28 11:25:13;;;;;;;7.63;2.45;;;;;;;;;;5020517;28;20461;-75
2022/04/28 11:27:39;;;;;;;9.02;2.72;;;;;;;;;;5023035;28;20039;-76
2022/04/28 11:30:06;;;;;;;9.18;2.58;;;;;;;;;;5021736;28;20053;-76
2022/04/28 11:32:32;;;;;;;8.10;2.85;;;;;;;;;;5025139;28;20040;-77
2022/04/28 11:34:59;;;;;;;6.72;2.70;;;;;;;;;;5020193;28;20054;-76
2022/04/28 11:37:26;;;;;;;8.05;2.65;;;;;;;;;;5013573;28;20049;-76
2022/04/28 11:39:53;;;;;;;9.00;2.78;;;;;;;;;;5031082;28;20041;-69
2022/04/28 11:42:19;;;;;;;5.57;2.05;;;;;;;;;;5024789;28;20041;-69
2022/04/28 11:44:53;;;;;;;7.88;2.40;;;;;;;;;;5027646;28;20069;-69
2022/04/28 11:47:23;;;;;;;9.20;2.28;;;;;;;;;;5029102;28;20469;-69
2022/04/28 11:49:56;;;;;;;8.70;2.20;;;;;;;;;;5030380;28;20033;-69
2022/04/28 11:52:27;;;;;;;7.00;2.80;;;;;;;;;;5018245;28;20079;-67
2022/04/28 11:55:03;;;;;;;7.28;2.65;;;;;;;;;;5023411;28;20041;-69
2022/04/28 11:57:30;;;;;;;8.43;2.55;;;;;;;;;;5045034;28;20076;-69
2022/04/28 11:59:57;;;;;;;7.65;2.60;;;;;;;;;;5024816;28;20041;-68
2022/04/28 12:02:26;;;;;;;12.63;2.83;;;;;;;;;;5027990;28;20026;-69
2022/04/28 12:04:52;;;;;;;8.63;2.22;;;;;;;;;;5034711;28;20041;-69
2022/04/28 12:07:19;;;;;;;7.93;2.50;;;;;;;;;;5025887;28;20048;-69
2022/04/28 12:15:15;;;;;;;6.68;2.70;;;;;;;;;;5027992;28;20133;-69
2022/04/28 12:20:39;;;;;;;10.50;2.50;;;;;;;;;;5022106;28;20091;-69
2022/04/28 12:23:05;;;;;;;7.22;2.40;;;;;;;;;;5003379;28;20056;-69
2022/04/28 12:25:37;;;;;;;8.65;2.90;;;;;;;;;;5020336;28;20037;-68
2022/04/28 12:28:05;;;;;;;7.35;2.65;;;;;;;;;;5016494;28;20051;-69
2022/04/28 12:30:35;;;;;;;12.55;3.45;;;;;;;;;;5027778;28;20044;-68
2022/04/28 12:33:03;;;;;;;9.05;2.78;;;;;;;;;;5022452;28;20049;-68
2022/04/28 12:35:36;;;;;;;6.47;2.72;;;;;;;;;;5032510;28;20040;-69
2022/04/28 12:38:07;;;;;;;8.45;2.60;;;;;;;;;;5011058;28;20045;-69
2022/04/28 12:40:43;;;;;;;6.75;2.97;;;;;;;;;;5028479;28;20037;-69
2022/04/28 12:43:08;;;;;;;;;;;;;;;;;;5023035;28;20037;-69
2022/04/28 12:45:42;;;;;;;8.00;2.88;;;;;;;;;;5024413;28;19936;-68
2022/04/28 12:48:27;;;;;;;10.30;3.10;;;;;;;;;;5025205;28;20053;-68
2022/04/28 12:51:11;;;;;;;10.30;2.88;;;;;;;;;;5029770;28;20033;-69
2022/04/28 12:53:37;;;;;;;7.10;2.83;;;;;;;;;;5024199;28;20045;-69
2022/04/28 12:56:08;;;;;;;8.45;3.10;;;;;;;;;;5010009;28;20147;-69
2022/04/28 12:58:38;;;;;;;6.60;3.10;;;;;;;;;;5019842;28;20110;-68
2022/04/28 13:01:04;;;;;;;10.70;2.83;;;;;;;;;;5026648;28;20087;-68
2022/04/28 13:03:30;;;;;;;10.75;3.63;;;;;;;;;;5026535;28;20044;-68
2022/04/28 13:05:56;;;;;;;8.95;3.58;;;;;;;;;;5026249;28;20127;-68
2022/04/28 13:08:22;;;;;;;9.27;3.55;;;;;;;;;;5005519;28;20056;-68
2022/04/28 13:10:48;;;;;;;11.38;3.20;;;;;;;;;;5026120;28;20060;-68
2022/04/28 13:13:14;;;;;;;12.10;4.35;;;;;;;;;;5019262;28;20041;-68
2022/04/28 13:15:41;;;;;;;10.57;3.72;;;;;;;;;;5002712;28;20052;-68
2022/04/28 13:18:07;;;;;;;9.25;3.47;;;;;;;;;;5018009;28;20052;-68
2022/04/28 13:20:33;;;;;;;9.50;3.55;;;;;;;;;;5000967;28;20390;-68
2022/04/28 13:22:59;;;;;;;9.98;4.03;;;;;;;;;;5000903;28;20133;-68
2022/04/28 13:25:25;;;;;;;8.43;3.40;;;;;;;;;;5019854;28;20048;-68
2022/04/28 13:27:51;;;;;;;10.88;4.05;;;;;;;;;;5017293;28;20056;-68
2022/04/28 13:30:17;;;;;;;13.55;4.05;;;;;;;;;;5025775;28;20421;-69
2022/04/28 13:32:43;;;;;;;8.25;3.70;;;;;;;;;;5026332;28;20037;-68
2022/04/28 13:35:09;;;;;;;11.95;3.67;;;;;;;;;;5025948;28;20052;-68
2022/04/28 13:37:35;;;;;;;9.63;3.20;;;;;;;;;;5027404;28;20048;-68
2022/04/28 13:40:02;;;;;;;8.57;3.60;;;;;;;;;;5018276;28;20496;-68
2022/04/28 13:42:28;;;;;;;7.78;3.47;;;;;;;;;;5025697;28;20036;-67
2022/04/28 13:44:54;;;;;;;9.05;3.50;;;;;;;;;;5007207;28;20069;-68
2022/04/28 13:47:20;;;;;;;10.30;3.85;;;;;;;;;;5027529;28;20040;-68
2022/04/28 13:49:46;;;;;;;9.63;3.38;;;;;;;;;;5006662;28;20053;-68
2022/04/28 13:52:12;;;;;;;9.32;3.40;;;;;;;;;;5036913;28;20037;-68
2022/04/28 13:54:38;;;;;;;8.95;3.28;;;;;;;;;;5026619;28;20037;-68
2022/04/28 13:57:04;;;;;;;10.85;3.25;;;;;;;;;;5030778;28;20060;-68
2022/04/28 13:59:30;;;;;;;14.82;3.70;;;;;;;;;;5027774;28;20092;-68
2022/04/28 14:01:56;;;;;;;7.90;3.30;;;;;;;;;;5048192;28;20040;-68
2022/04/28 14:04:25;;;;;;;11.45;3.58;;;;;;;;;;5029054;28;20044;-68
2022/04/28 14:06:54;;;;;;;8.05;3.60;;;;;;;;;;5017071;28;20044;-69
2022/04/28 14:09:21;;;;;;;8.75;3.15;;;;;;;;;;5024114;28;20553;-68
2022/04/28 14:11:47;;;;;;;10.30;3.13;;;;;;;;;;5022418;28;20486;-68
2022/04/28 14:14:14;;;;;;;10.55;3.40;;;;;;;;;;5021909;28;20045;-68
2022/04/28 14:16:40;;;;;;;10.88;3.13;;;;;;;;;;5020972;28;20045;-67
2022/04/28 14:19:06;;;;;;;5.88;2.67;;;;;;;;;;5024320;28;20091;-68
2022/04/28 14:21:33;;;;;;;8.38;3.08;;;;;;;;;;5040460;28;20060;-68
2022/04/28 14:24:00;;;;;;;10.38;2.92;;;;;;;;;;5018927;28;20041;-67
2022/04/28 14:26:26;;;;;;;8.63;2.65;;;;;;;;;;5020491;28;20041;-68
2022/04/28 14:28:52;;;;;;;9.43;3.10;;;;;;;;;;5032992;28;20065;-68
2022/04/28 14:31:18;;;;;;;6.60;2.70;;;;;;;;;;5021510;28;20056;-68
2022/04/28 14:33:44;;;;;;;9.02;3.42;;;;;;;;;;5026566;28;20045;-68
2022/04/28 14:36:11;;;;;;;6.28;2.78;;;;;;;;;;5018488;28;20052;-68
2022/04/28 14:38:37;;;;;;;11.55;3.88;;;;;;;;;;5039197;28;20102;-68
2022/04/28 14:41:03;;;;;;;7.20;2.90;;;;;;;;;;5018905;28;20049;-67
2022/04/28 14:43:30;;;;;;;8.35;2.53;;;;;;;;;;5014781;28;20045;-67
2022/04/28 14:45:56;;;;;;;11.05;3.25;;;;;;;;;;5014695;28;20041;-68
2022/04/28 14:48:22;;;;;;;10.50;3.00;;;;;;;;;;5016119;28;20111;-68
2022/04/28 14:53:36;;;;;;;10.10;3.40;;;;;;;;;;5017401;28;20065;-68
2022/04/28 14:56:02;;;;;;;14.68;3.35;;;;;;;;;;5014114;28;20041;-68
2022/04/28 14:58:28;;;;;;;10.88;2.78;;;;;;;;;;5017028;28;20063;-68
2022/04/28 15:00:55;;;;;;;11.25;2.80;;;;;;;;;;5037427;28;20032;-68
2022/04/28 15:03:21;;;;;;;6.85;2.78;;;;;;;;;;5014913;28;20049;-68
2022/04/28 15:05:47;;;;;;;8.90;3.50;;;;;;;;;;5014422;28;20555;-68
2022/04/28 15:08:13;;;;;;;9.43;3.25;;;;;;;;;;5018269;28;20053;-68
2022/04/28 15:10:42;;;;;;;8.95;2.95;;;;;;;;;;5014372;28;20045;-68
2022/04/28 15:13:08;;;;;;;7.90;2.83;;;;;;;;;;5023936;28;20055;-68
2022/04/28 15:15:35;;;;;;;7.88;2.90;;;;;;;;;;5022641;28;20116;-68
2022/04/28 15:18:02;;;;;;;10.02;3.13;;;;;;;;;;5030366;28;20171;-68
2022/04/28 15:20:28;;;;;;;14.02;3.33;;;;;;;;;;5017159;28;20041;-67
2022/04/28 15:22:54;;;;;;;8.38;3.22;;;;;;;;;;5017198;28;20509;-67